ePrivacy and GPDR Cookie Consent by Cookie Consent
EmailTwitter


Observations de surface / Québec / CYUL (71627)

Régions: Québec | Canada | États-Unis | Europe | France | UK | Ailleurs
Station
Affichage
Infos & localisation pour CYUL (71627) | Aide pour décoder les METARs

Observations prises le 2023-12-11 à 03H00 UTC à MONTREAL INTL A, QB (CYUL)

Etat du ciel: couvert.

Obstacle(s) à la visibilité: faible pluie.

Température: 3.0 Celsius

Point de rosée: 2.0 Celsius

Humidité relative: 93%

Vents: Nord-ouest à 6 km/h ou 3 noeuds.

Pression au niveau moyen de la mer: 100.95 kilopascals.

Calage altimétrique: 100.91 kilopascals ou 29.80 pouces de mercure.

Visibilité horizontale: 8.00 milles terrestres ou 12.80 kilomètres.

Hauteur du plafond: 914 mètres ( 3000 pieds ).

Observation METAR:

CYUL 110300Z 30003KT 250V330 8SM -RA OVC030 03/02 A2980 RMK SC8 SLP095=